Tiempo atmosférico en la estación meteorológica de Garganta De La Olla, Cáceres (690 m.)



Fecha
DESCASC
Temp. máxima en grados centígrados (hora)
DESCASC
Temp. mínima en grados centígrados (hora)
DESCASC
Temp. media en grados centígrados
DESCASC
Racha de viento máxima en m/sg (hora)
DESCASC
Velocidad máxima media en intervalos de 10 minutos(hora)
DESCASC
Precipitaciones diarias en mm
DESCASC
Precipitaciones de 00:00 a 06:00 en mm
DESCASC
Precipitaciones de 06:00 a 12:00 en mm
DESCASC
Precipitaciones de 12:00 a 18:00 en mm
DESCASC
Precipitaciones de 18:00 a 24:00 en mm
DESCASC

Gráficas

Temp. máximas Temp. mínimas Temp. medias Precipitaciones Rachas de viento máximas Velocidades máximas media en intervalos de 10 minutos

Datos horarios

Fecha y hora oficial Temperatura (ºC) Velocidad del viento (km/h) Dirección del viento Racha (km/h) Dirección de racha Precipitación (mm) Presión (hPa) Tendencia (hPa) Humedad (%)
2019-06-19 23:00:00 17.6 6 Noroeste 18 Noroeste 0 -- -- 65
2019-06-19 22:00:00 18.3 12 Noroeste 18 Noroeste 0 -- -- 64
2019-06-19 21:00:00 20.4 6 Noroeste 14 Noroeste 0 -- -- 61
2019-06-19 20:00:00 22.3 6 Norte 19 Noroeste 0 -- -- 54
2019-06-19 19:00:00 23.2 7 Noroeste 22 Noroeste 0 -- -- 51
2019-06-19 18:00:00 23.2 9 Noroeste 21 Oeste 0 -- -- 49
2019-06-19 17:00:00 22.3 13 Noroeste 25 Noroeste 0 -- -- 54
2019-06-19 16:00:00 22.6 5 Oeste 20 Norte 0 -- -- 50
2019-06-19 15:00:00 21.8 7 Norte 17 Norte 0 -- -- 54
2019-06-19 14:00:00 20.6 6 Norte 21 Noroeste 0 -- -- 57
2019-06-19 13:00:00 20.4 4 Norte 15 Noroeste 0 -- -- 57
2019-06-19 12:00:00 19.1 10 Norte 25 Noroeste 0 -- -- 62
2019-06-19 11:00:00 17.4 7 Noroeste 23 Noroeste 0 -- -- 71
2019-06-19 10:00:00 16.4 4 Sur 9 Oeste 0.2 -- -- 89
2019-06-19 09:00:00 16 4 Sur 13 Norte 0 -- -- 85
2019-06-19 08:00:00 16.1 5 Norte 15 Norte 0 -- -- 78
2019-06-19 07:00:00 14.7 5 Noroeste 14 Norte 0 -- -- 84
2019-06-19 06:00:00 14.9 9 Norte 20 Noroeste 0 -- -- 82
2019-06-19 05:00:00 15 12 Noroeste 22 Noroeste 0 -- -- 79
2019-06-19 04:00:00 15.2 4 Norte 19 Noroeste 0 -- -- 78
2019-06-19 03:00:00 16.5 5 Norte 21 Noroeste 0 -- -- 68
2019-06-19 02:00:00 16.8 3 Sudeste 31 Norte 0 -- -- 66
2019-06-19 01:00:00 17.9 17 Noroeste 36 Noroeste 0 -- -- 60
2019-06-19 00:00:00 18.6 8 Noroeste 20 Noroeste 0 -- -- 63
2019-06-18 23:00:00 19 6 Noroeste 11 Noroeste 0 -- -- 65
2019-06-18 22:00:00 19.9 2 Oeste 8 Sudoeste 0 -- -- 62
2019-06-18 21:00:00 21.1 2 Sudeste 16 Norte 0 -- -- 60
2019-06-18 20:00:00 21.8 6 Noroeste 17 Noroeste 0 -- -- 56
2019-06-18 19:00:00 23.7 3 Noroeste 22 Oeste 0 -- -- 51
2019-06-18 18:00:00 24.6 9 Oeste 32 Sudoeste 0 -- -- 44
2019-06-18 17:00:00 24.2 8 Sudoeste 25 Sur 0 -- -- 45
2019-06-18 16:00:00 22.6 14 Sudoeste 31 Sudoeste 0 -- -- 52
2019-06-18 15:00:00 23.9 14 Sudoeste 27 Sudoeste 0 -- -- 40
2019-06-18 14:00:00 24.3 11 Sur 27 Sur 0 -- -- 36
2019-06-18 13:00:00 23.6 10 Sudeste 25 Sur 0 -- -- 31
2019-06-18 12:00:00 22.2 10 Sudeste 21 Sudeste 0 -- -- 36
2019-06-18 11:00:00 21.6 13 Sudeste 25 Sudeste 0 -- -- 37
2019-06-18 10:00:00 21 13 Sudeste 22 Sudeste 0 -- -- 39
2019-06-18 09:00:00 19.8 6 Este 12 Este 0 -- -- 40
2019-06-18 08:00:00 16.9 5 Nordeste 12 Noroeste 0 -- -- 47
2019-06-18 07:00:00 15.2 8 Noroeste 10 Noroeste 0 -- -- 57
2019-06-18 06:00:00 15.4 8 Noroeste 12 Norte 0 -- -- 58
2019-06-18 05:00:00 16.8 2 Sur 6 Oeste 0 -- -- 49
2019-06-18 04:00:00 17.6 3 Oeste 9 Norte 0 -- -- 40
2019-06-18 03:00:00 17.7 4 Noroeste 15 Noroeste 0 -- -- 38
2019-06-18 02:00:00 20.2 5 Noroeste 14 Oeste 0 -- -- 31
2019-06-18 01:00:00 21.3 5 Oeste 13 Noroeste 0 -- -- 26
2019-06-18 00:00:00 21.8 8 Oeste 18 Noroeste 0 -- -- 29
2019-06-17 23:00:00 22.7 10 Noroeste 20 Noroeste 0 -- -- 26
2019-06-17 22:00:00 23 12 Noroeste 20 Oeste 0 -- -- 25
2019-06-17 21:00:00 23.6 11 Noroeste 23 Oeste 0 -- -- 25
2019-06-17 20:00:00 24.8 4 Oeste 13 Sudoeste 0 -- -- 32
2019-06-17 19:00:00 28 7 Sur 19 Sudoeste 0 -- -- 22
2019-06-17 18:00:00 28.2 8 Sudoeste 26 Sur 0 -- -- 20
2019-06-17 17:00:00 27.9 9 Sur 26 Sur 0 -- -- 19
2019-06-17 16:00:00 26.7 5 Sudeste 22 Sudeste 0 -- -- 30
2019-06-17 15:00:00 26.5 10 Sur 28 Sudeste 0 -- -- 34
2019-06-17 14:00:00 26.4 11 Sudeste 26 Sur 0 -- -- 32
2019-06-17 13:00:00 25.5 9 Sudeste 22 Sur 0 -- -- 36
2019-06-17 12:00:00 24.3 10 Sudeste 20 Sudeste 0 -- -- 39
2019-06-17 11:00:00 23.3 7 Sudeste 14 Sudeste 0 -- -- 38
2019-06-17 10:00:00 22 5 Sudeste 9 Sudeste 0 -- -- 39
2019-06-17 09:00:00 19.9 3 Nordeste 6 Nordeste 0 -- -- 47
2019-06-17 08:00:00 16.8 0 Calma 5 Sur 0 -- -- 47
2019-06-17 07:00:00 17.8 3 Norte 16 Noroeste 0 -- -- 45
2019-06-17 06:00:00 18.6 8 Noroeste 21 Noroeste 0 -- -- 42
2019-06-17 05:00:00 17.1 10 Noroeste 20 Noroeste 0 -- -- 48
2019-06-17 04:00:00 17.8 13 Noroeste 19 Noroeste 0 -- -- 46
2019-06-17 03:00:00 18.2 12 Noroeste 22 Noroeste 0 -- -- 36
2019-06-17 02:00:00 18.7 15 Noroeste 24 Noroeste 0 -- -- 43
2019-06-17 01:00:00 19.1 16 Noroeste 23 Noroeste 0 -- -- 41
2019-06-17 00:00:00 18.4 12 Noroeste 18 Noroeste 0 -- -- 37
2019-06-16 23:00:00 17.4 9 Noroeste 15 Noroeste 0 -- -- 40
2019-06-16 22:00:00 19.4 9 Noroeste 17 Oeste 0 -- -- 41
2019-06-16 21:00:00 22.2 10 Noroeste 14 Noroeste 0 -- -- 37
2019-06-16 20:00:00 26.5 3 Noroeste 10 Noroeste 0 -- -- 37
2019-06-16 19:00:00 25.9 4 Norte 8 Noroeste 0 -- -- 42
2019-06-16 18:00:00 26.7 0 Calma 15 Sudeste 0 -- -- 30
2019-06-16 17:00:00 27 8 Sudeste 15 Sudeste 0 -- -- 29
2019-06-16 16:00:00 26.1 6 Sudeste 21 Sur 0 -- -- 30
2019-06-16 15:00:00 25.2 6 Este 13 Sudeste 0 -- -- 29
2019-06-16 14:00:00 23.9 5 Sudeste 15 Sudeste 0 -- -- 36
2019-06-16 13:00:00 23.6 6 Sur 13 Sur 0 -- -- 37
2019-06-16 12:00:00 22.3 5 Sur 10 Sudeste 0 -- -- 39
2019-06-16 11:00:00 21.2 5 Sudeste 12 Sudeste 0 -- -- 43
2019-06-16 10:00:00 20.5 7 Sudeste 14 Sudeste 0 -- -- 45
2019-06-16 09:00:00 20 2 Sudeste 9 Noroeste 0 -- -- 49
2019-06-16 08:00:00 15.7 3 Norte 12 Noroeste 0 -- -- 56
2019-06-16 07:00:00 13.9 5 Noroeste 10 Noroeste 0 -- -- 54
2019-06-16 06:00:00 15.2 4 Noroeste 13 Noroeste 0 -- -- 49
2019-06-16 05:00:00 15.6 8 Noroeste 16 Noroeste 0 -- -- 47
2019-06-16 04:00:00 15.8 10 Noroeste 16 Noroeste 0 -- -- 47
2019-06-16 03:00:00 16.5 12 Noroeste 17 Noroeste 0 -- -- 45
2019-06-16 02:00:00 16.5 6 Noroeste 14 Noroeste 0 -- -- 45
2019-06-16 01:00:00 17.1 9 Noroeste 21 Noroeste 0 -- -- 44
2019-06-16 00:00:00 17 11 Noroeste 18 Noroeste 0 -- -- 44
2019-06-15 23:00:00 16.1 6 Noroeste 14 Noroeste 0 -- -- 46
2019-06-15 22:00:00 17.5 4 Norte 15 Oeste 0 -- -- 43
2019-06-15 21:00:00 18.9 8 Noroeste 14 Noroeste 0 -- -- 44
2019-06-15 20:00:00 23.5 6 Noroeste 17 Noroeste 0 -- -- 35
2019-06-15 19:00:00 23.9 9 Noroeste 21 Noroeste 0 -- -- 31
2019-06-15 18:00:00 23.9 9 Noroeste 21 Norte 0 -- -- 33
2019-06-15 17:00:00 23.7 6 Noroeste 29 Oeste 0 -- -- 36
2019-06-15 16:00:00 23.3 12 Sur 26 Sur 0 -- -- 37
2019-06-15 15:00:00 21.6 8 Sur 19 Sudeste 0 -- -- 41
2019-06-15 14:00:00 21 10 Sudeste 17 Sudeste 0 -- -- 44
2019-06-15 13:00:00 19.5 8 Sudeste 19 Sur 0 -- -- 47
2019-06-15 12:00:00 18.3 5 Sudeste 19 Sur 0 -- -- 50
2019-06-15 11:00:00 17 9 Sur 21 Sudeste 0 -- -- 51
2019-06-15 10:00:00 14.8 5 Sur 14 Sur 0 -- -- 60
2019-06-15 09:00:00 14.1 3 Este 8 Este 0 -- -- 58
2019-06-15 08:00:00 10.3 2 Nordeste 8 Sur 0 -- -- 69
2019-06-15 07:00:00 10.5 2 Sur 24 Noroeste 0 -- -- 66
2019-06-15 06:00:00 11.3 17 Noroeste 35 Noroeste 0 -- -- 63
2019-06-15 05:00:00 11.4 22 Noroeste 33 Noroeste 0 -- -- 64
2019-06-15 04:00:00 11.6 22 Noroeste 31 Noroeste 0 -- -- 65
2019-06-15 03:00:00 11.5 13 Norte 35 Noroeste 0 -- -- 65
2019-06-15 02:00:00 12.1 19 Noroeste 31 Noroeste 0 -- -- 63
2019-06-15 01:00:00 12.4 20 Noroeste 32 Noroeste 0 -- -- 62
2019-06-15 00:00:00 13 15 Noroeste 31 Noroeste 0 -- -- 59
2019-06-14 23:00:00 13.6 13 Noroeste 30 Noroeste 0 -- -- 57
2019-06-14 22:00:00 14.6 10 Noroeste 27 Noroeste 0 -- -- 50
2019-06-14 21:00:00 16 9 Noroeste 25 Noroeste 0 -- -- 45
2019-06-14 20:00:00 17.9 13 Oeste 27 Oeste 0 -- -- 41
2019-06-14 19:00:00 18.9 6 Oeste 27 Norte 0 -- -- 38
2019-06-14 18:00:00 19.6 7 Norte 28 Noroeste 0 -- -- 39
2019-06-14 17:00:00 19.8 6 Sudoeste 22 Oeste 0 -- -- 39
2019-06-14 16:00:00 19 6 Sudoeste 24 Sur 0 -- -- 41
2019-06-14 15:00:00 19.7 6 Noroeste 26 Sudoeste 0 -- -- 38
2019-06-14 14:00:00 18.9 10 Sudoeste 26 Sur 0 -- -- 35
2019-06-14 13:00:00 18.1 10 Sur 27 Sur 0 -- -- 40
2019-06-14 12:00:00 17.9 13 Sudeste 26 Sudeste 0 -- -- 40
2019-06-14 11:00:00 17.2 13 Sudeste 22 Sudeste 0 -- -- 41
2019-06-14 10:00:00 16.5 10 Sudeste 17 Sur 0 -- -- 43
2019-06-14 09:00:00 15 5 Sudeste 10 Sudeste 0 -- -- 51
2019-06-14 08:00:00 13.1 0 Calma 14 Noroeste 0 -- -- 48
2019-06-14 07:00:00 11.5 9 Noroeste 15 Oeste 0 -- -- 52
2019-06-14 06:00:00 12.8 8 Noroeste 18 Oeste 0 -- -- 53
2019-06-14 05:00:00 14 9 Noroeste 16 Oeste 0 -- -- 49
2019-06-14 04:00:00 13.5 3 Norte 7 Sudoeste 0 -- -- 46
2019-06-14 03:00:00 14.8 3 Noroeste 10 Noroeste 0 -- -- 40
2019-06-14 02:00:00 15.7 9 Noroeste 16 Noroeste 0 -- -- 38
2019-06-14 01:00:00 16.8 3 Sudoeste 19 Noroeste 0 -- -- 37
2019-06-14 00:00:00 16.6 10 Noroeste 19 Noroeste 0 -- -- 36
2019-06-13 23:00:00 15.5 12 Noroeste 19 Noroeste 0 -- -- 40
2019-06-13 22:00:00 17.5 9 Noroeste 17 Oeste 0 -- -- 38
2019-06-13 21:00:00 20.7 11 Noroeste 17 Noroeste 0 -- -- 38
2019-06-13 20:00:00 24 0 Calma 18 Sudoeste 0 -- -- 30
2019-06-13 19:00:00 23.8 8 Sur 21 Sur 0 -- -- 23
2019-06-13 18:00:00 24.3 5 Sur 26 Sur 0 -- -- 22
2019-06-13 17:00:00 23.8 11 Sur 26 Sur 0 -- -- 22
2019-06-13 16:00:00 23.4 12 Sur 26 Sudeste 0 -- -- 23
2019-06-13 15:00:00 22.7 9 Sudeste 24 Sur 0 -- -- 28
2019-06-13 14:00:00 21.4 12 Sudeste 25 Sudeste 0 -- -- 27
2019-06-13 13:00:00 20.7 10 Sudeste 25 Sudeste 0 -- -- 31
2019-06-13 12:00:00 19.5 8 Sur 22 Sudeste 0 -- -- 32
2019-06-13 11:00:00 18.5 10 Sudeste 17 Sudeste 0 -- -- 34
2019-06-13 10:00:00 17.2 8 Sur 13 Sur 0 -- -- 42
2019-06-13 09:00:00 16.9 4 Este 7 Nordeste 0 -- -- 44
2019-06-13 08:00:00 13.7 3 Norte 14 Noroeste 0 -- -- 49
2019-06-13 07:00:00 12.4 10 Noroeste 16 Oeste 0 -- -- 42
2019-06-13 06:00:00 12.7 4 Oeste 16 Noroeste 0 -- -- 39
2019-06-13 05:00:00 12.5 3 Oeste 10 Noroeste 0 -- -- 40
2019-06-13 04:00:00 13.2 3 Noroeste 11 Noroeste 0 -- -- 39
2019-06-13 03:00:00 14.2 0 Calma 12 Noroeste 0 -- -- 35
2019-06-13 02:00:00 14.9 8 Noroeste 23 Noroeste 0 -- -- 32
2019-06-13 01:00:00 15.1 14 Noroeste 29 Noroeste 0 -- -- 34
2019-06-13 00:00:00 16.2 17 Noroeste 30 Noroeste 0 -- -- 31
2019-06-12 23:00:00 16.4 17 Noroeste 25 Noroeste 0 -- -- 30
2019-06-12 22:00:00 16.6 15 Noroeste 23 Noroeste 0 -- -- 33
2019-06-12 21:00:00 18.2 13 Noroeste 18 Noroeste 0 -- -- 33
2019-06-12 20:00:00 23.5 6 Noroeste 16 Noroeste 0 -- -- 27
2019-06-12 19:00:00 24.1 5 Oeste 17 Sur 0 -- -- 22
2019-06-12 18:00:00 23.5 6 Nordeste 19 Sudeste 0 -- -- 24
2019-06-12 17:00:00 23.3 8 Sudeste 20 Sur 0 -- -- 26
2019-06-12 16:00:00 22.5 7 Este 21 Sur 0 -- -- 26
2019-06-12 15:00:00 22.1 9 Este 23 Sudeste 0 -- -- 27
2019-06-12 14:00:00 21.5 7 Este 23 Sur 0 -- -- 28
2019-06-12 13:00:00 20.1 7 Sudeste 21 Sudeste 0 -- -- 28
2019-06-12 12:00:00 19.5 9 Sudeste 20 Sudeste 0 -- -- 35
2019-06-12 11:00:00 18.4 7 Sur 16 Sudeste 0 -- -- 35
2019-06-12 10:00:00 17.1 6 Sur 14 Sudeste 0 -- -- 35
2019-06-12 09:00:00 16.1 3 Este 8 Norte 0 -- -- 40
2019-06-12 08:00:00 12.2 7 Noroeste 17 Noroeste 0 -- -- 48
2019-06-12 07:00:00 10 10 Noroeste 15 Noroeste 0 -- -- 45
2019-06-12 06:00:00 10.9 4 Oeste 17 Noroeste 0 -- -- 43
2019-06-12 05:00:00 11.6 9 Noroeste 17 Oeste 0 -- -- 39
2019-06-12 04:00:00 11.7 6 Noroeste 17 Noroeste 0 -- -- 39
2019-06-12 03:00:00 11.8 4 Noroeste 17 Noroeste 0 -- -- 40
2019-06-12 02:00:00 12.8 9 Noroeste 17 Noroeste 0 -- -- 37
2019-06-12 01:00:00 13.9 9 Noroeste 30 Norte 0 -- -- 34
2019-06-12 00:00:00 16 19 Norte 30 Nordeste 0 -- -- 28
2019-06-11 23:00:00 16.2 16 Norte 35 Norte 0 -- -- 28
2019-06-11 22:00:00 16.5 13 Norte 37 Noroeste 0 -- -- 28
2019-06-11 21:00:00 17.4 16 Norte 35 Nordeste 0 -- -- 27
2019-06-11 20:00:00 19.3 14 Nordeste 31 Nordeste 0 -- -- 25
2019-06-11 19:00:00 19.9 12 Nordeste 45 Nordeste 0 -- -- 26
2019-06-11 18:00:00 20.3 19 Este 40 Este 0 -- -- 24
2019-06-11 17:00:00 20.1 23 Este 46 Este 0 -- -- 26
2019-06-11 16:00:00 19.5 25 Este 41 Este 0 -- -- 28
2019-06-11 15:00:00 19.9 15 Nordeste 46 Este 0 -- -- 33
2019-06-11 14:00:00 19.6 14 Nordeste 47 Nordeste 0 -- -- 36
2019-06-11 13:00:00 18.6 27 Nordeste 47 Norte 0 -- -- 38
2019-06-11 12:00:00 19.2 19 Norte 45 Nordeste 0 -- -- 40
2019-06-11 11:00:00 17.9 26 Nordeste 51 Norte 0 -- -- 42
2019-06-11 10:00:00 18.1 15 Norte 45 Norte 0 -- -- 43
2019-06-11 09:00:00 17.2 16 Norte 41 Norte 0 -- -- 48
2019-06-11 08:00:00 15.2 26 Noroeste 45 Noroeste 0 -- -- 53
2019-06-11 07:00:00 14.6 30 Noroeste 52 Norte 0 -- -- 53
2019-06-11 06:00:00 14.8 37 Norte 60 Noroeste 0 -- -- 52
2019-06-11 05:00:00 14.8 42 Norte 62 Noroeste 0 -- -- 50
2019-06-11 04:00:00 15.6 37 Norte 57 Norte 0 -- -- 53
2019-06-11 03:00:00 16.4 34 Norte 50 Norte 0 -- -- 51
2019-06-11 02:00:00 17.1 31 Norte 46 Norte 0 -- -- 47
2019-06-11 01:00:00 17.5 31 Norte 52 Noroeste 0 -- -- 43
2019-06-11 00:00:00 17.2 28 Norte 37 Norte 0 -- -- 40
2019-06-10 23:00:00 18 21 Norte 34 Norte 0 -- -- 33
2019-06-10 22:00:00 17.8 17 Norte 27 Noroeste 0 -- -- 35
2019-06-10 21:00:00 19.8 14 Norte 30 Norte 0 -- -- 32
2019-06-10 20:00:00 23 10 Noroeste 28 Noroeste 0 -- -- 30
2019-06-10 19:00:00 23.8 9 Norte 27 Norte 0 -- -- 30
2019-06-10 18:00:00 23.8 16 Norte 34 Norte 0 -- -- 27
2019-06-10 17:00:00 24.1 15 Norte 31 Norte 0 -- -- 32
2019-06-10 16:00:00 24.5 4 Sur 24 Sudeste 0 -- -- 34
2019-06-10 15:00:00 23.8 13 Sur 25 Sudeste 0 -- -- 36
2019-06-10 14:00:00 22.9 10 Sur 24 Sudeste 0 -- -- 39
2019-06-10 13:00:00 21.9 10 Sur 20 Sur 0 -- -- 41
2019-06-10 12:00:00 20.9 9 Sudeste 19 Sudeste 0 -- -- 46
2019-06-10 11:00:00 20.1 8 Sudeste 14 Sudeste 0 -- -- 45
2019-06-10 10:00:00 18.7 4 Nordeste 9 Sur 0 -- -- 47
2019-06-10 09:00:00 17.6 4 Sudeste 7 Este 0 -- -- 48
2019-06-10 08:00:00 14.8 4 Sudeste 21 Noroeste 0 -- -- 51
2019-06-10 07:00:00 13 14 Noroeste 21 Noroeste 0 -- -- 55
2019-06-10 06:00:00 13.7 2 Oeste 12 Noroeste 0 -- -- 51
2019-06-10 05:00:00 14.1 8 Noroeste 19 Norte 0 -- -- 50
2019-06-10 04:00:00 15.8 13 Norte 41 Norte 0 -- -- 49
2019-06-10 03:00:00 16.2 18 Norte 44 Norte 0 -- -- 49
2019-06-10 02:00:00 16.8 30 Norte 55 Norte 0 -- -- 48
2019-06-10 01:00:00 16.4 23 Norte 43 Norte 0 -- -- 49
2019-06-10 00:00:00 16.9 22 Norte 42 Noroeste 0 -- -- 47
2019-06-09 23:00:00 17.5 24 Norte 41 Noroeste 0 -- -- 43
2019-06-09 22:00:00 17.7 22 Norte 31 Noroeste 0 -- -- 44
2019-06-09 21:00:00 17.9 13 Noroeste 21 Noroeste 0 -- -- 47
2019-06-09 20:00:00 21.7 9 Noroeste 18 Noroeste 0 -- -- 36
2019-06-09 19:00:00 21.9 8 Noroeste 25 Noroeste 0 -- -- 35
2019-06-09 18:00:00 22.9 9 Noroeste 31 Noroeste 0 -- -- 36
2019-06-09 17:00:00 23.7 8 Noroeste 26 Noroeste 0 -- -- 36
2019-06-09 16:00:00 23.2 9 Noroeste 27 Noroeste 0 -- -- 40
2019-06-09 15:00:00 23.5 10 Noroeste 24 Oeste 0 -- -- 38
2019-06-09 14:00:00 22.7 9 Sudeste 26 Sudeste 0 -- -- 31
2019-06-09 13:00:00 21.4 8 Este 17 Sur 0 -- -- 41
2019-06-09 12:00:00 20.4 8 Sur 18 Sudeste 0 -- -- 40
2019-06-09 11:00:00 18.8 7 Sudeste 13 Sudeste 0 -- -- 48
2019-06-09 10:00:00 17.4 6 Sudeste 9 Este 0 -- -- 45
2019-06-09 09:00:00 16.9 3 Sudeste 6 Sudeste 0 -- -- 46
2019-06-09 08:00:00 13.8 2 Norte 15 Noroeste 0 -- -- 48
2019-06-09 07:00:00 13.4 11 Noroeste 19 Noroeste 0 -- -- 34
2019-06-09 06:00:00 13.7 9 Noroeste 14 Noroeste 0 -- -- 39
2019-06-09 05:00:00 14.3 9 Noroeste 18 Noroeste 0 -- -- 32
2019-06-09 04:00:00 14.1 11 Noroeste 18 Noroeste 0 -- -- 47
2019-06-09 03:00:00 16.1 11 Noroeste 26 Noroeste 0 -- -- 37
2019-06-09 02:00:00 17.3 15 Noroeste 23 Noroeste 0 -- -- 33
2019-06-09 01:00:00 16.8 12 Noroeste 24 Noroeste 0 -- -- 35
2019-06-09 00:00:00 16.8 18 Noroeste 25 Noroeste 0 -- -- 36
2019-06-08 23:00:00 17.7 13 Noroeste 21 Noroeste 0 -- -- 33
2019-06-08 22:00:00 18.4 11 Noroeste 19 Noroeste 0 -- -- 34
2019-06-08 21:00:00 20.3 8 Noroeste 14 Noroeste 0 -- -- 37
2019-06-08 20:00:00 22.2 9 Noroeste 14 Noroeste 0 -- -- 34
2019-06-08 19:00:00 24 3 Sudoeste 14 Sudoeste 0 -- -- 29
2019-06-08 18:00:00 24.8 9 Sur 18 Sudeste 0 -- -- 26
2019-06-08 17:00:00 25.3 6 Sur 15 Sur 0 -- -- 27
2019-06-08 16:00:00 24.3 5 Sudeste 19 Sudeste 0 -- -- 27
2019-06-08 15:00:00 23.6 8 Sur 24 Sur 0 -- -- 29
2019-06-08 14:00:00 23 10 Sur 25 Sur 0 -- -- 33
2019-06-08 13:00:00 22.6 11 Sur 24 Sur 0 -- -- 35
2019-06-08 12:00:00 20.4 6 Sur 19 Sur 0 -- -- 40
2019-06-08 11:00:00 19.2 9 Sur 18 Sur 0 -- -- 39
2019-06-08 10:00:00 18.5 4 Sur 10 Sudeste 0 -- -- 41
2019-06-08 09:00:00 16.9 3 Nordeste 6 Oeste 0 -- -- 46
2019-06-08 08:00:00 12.8 6 Noroeste 10 Noroeste 0 -- -- 53
2019-06-08 07:00:00 11.3 3 Noroeste 10 Noroeste 0 -- -- 56
2019-06-08 06:00:00 12.1 2 Oeste 8 Noroeste 0 -- -- 54
2019-06-08 05:00:00 11.3 9 Noroeste 13 Noroeste 0 -- -- 57
2019-06-08 04:00:00 13.1 4 Sudoeste 12 Noroeste 0 -- -- 51
2019-06-08 03:00:00 12.9 8 Noroeste 16 Noroeste 0 -- -- 52
2019-06-08 02:00:00 12.8 9 Noroeste 15 Noroeste 0 -- -- 52
2019-06-08 01:00:00 13 6 Noroeste 15 Noroeste 0 -- -- 51
2019-06-08 00:00:00 14 6 Noroeste 18 Noroeste 0 -- -- 49
2019-06-07 23:00:00 14.1 11 Noroeste 20 Norte 0 -- -- 50
2019-06-07 22:00:00 14.8 17 Noroeste 27 Noroeste 0 -- -- 49
2019-06-07 21:00:00 16 17 Noroeste 25 Noroeste 0 -- -- 47
2019-06-07 20:00:00 19.3 6 Norte 15 Norte 0 -- -- 45
2019-06-07 19:00:00 20.7 4 Noroeste 15 Nordeste 0 -- -- 36
2019-06-07 18:00:00 20.4 5 Noroeste 25 Noroeste 0 -- -- 36
2019-06-07 17:00:00 20.4 7 Noroeste 17 Noroeste 0 -- -- 37
2019-06-07 16:00:00 19.4 8 Sur 18 Sudeste 0 -- -- 42
2019-06-07 15:00:00 17.6 4 Nordeste 19 Este 0 -- -- 46
2019-06-07 14:00:00 17.4 8 Sur 16 Sudeste 0 -- -- 44
2019-06-07 13:00:00 16.6 6 Sur 25 Sudeste 0 -- -- 52
2019-06-07 12:00:00 16.3 9 Sudeste 26 Noroeste 0 -- -- 56
2019-06-07 11:00:00 14.1 17 Noroeste 30 Norte 0 -- -- 51
2019-06-07 10:00:00 12.8 19 Norte 35 Norte 0 -- -- 59
2019-06-07 09:00:00 11.2 12 Norte 42 Noroeste 0 -- -- 65
2019-06-07 08:00:00 9.6 25 Norte 51 Noroeste 0 -- -- 65
2019-06-07 07:00:00 8.4 27 Norte 48 Noroeste 0 -- -- 71
2019-06-07 06:00:00 8.2 18 Norte 40 Noroeste 0 -- -- 74
2019-06-07 05:00:00 8.1 19 Norte 45 Noroeste 0 -- -- 76
2019-06-07 04:00:00 8.4 24 Norte 49 Noroeste 0 -- -- 76
2019-06-07 03:00:00 9.1 23 Norte 45 Noroeste 0 -- -- 84
2019-06-07 02:00:00 10.5 18 Norte 41 Noroeste 0.2 -- -- 90
2019-06-07 01:00:00 11.2 13 Norte 40 Noroeste 1 -- -- 90
2019-06-07 00:00:00 12.8 8 Sudoeste 26 Sudoeste 4.2 -- -- 91
2019-06-06 23:00:00 13.8 6 Sudoeste 32 Sudoeste 0.8 -- -- 83
2019-06-06 22:00:00 15.2 3 Norte 22 Oeste 0 -- -- 69
2019-06-06 21:00:00 17.2 6 Sudoeste 23 Sudoeste 0 -- -- 53
2019-06-06 20:00:00 18.4 11 Sur 23 Sudoeste 0 -- -- 44
2019-06-06 19:00:00 18.9 8 Sudoeste 26 Sudoeste 0 -- -- 43
2019-06-06 18:00:00 20 13 Sur 33 Sur 0 -- -- 40
2019-06-06 17:00:00 20.2 12 Sur 33 Sur 0 -- -- 40
2019-06-06 16:00:00 19.8 10 Sudeste 24 Sur 0 -- -- 38
2019-06-06 15:00:00 18.8 12 Sudeste 25 Sur 0 -- -- 38
2019-06-06 14:00:00 17.6 10 Sur 27 Sudeste 0 -- -- 40
2019-06-06 13:00:00 16.5 12 Sudeste 26 Sudeste 0 -- -- 46
2019-06-06 12:00:00 15.8 13 Sudeste 23 Sudeste 0 -- -- 49
2019-06-06 11:00:00 14.4 8 Sudeste 16 Sudeste 0 -- -- 55
2019-06-06 10:00:00 12.7 6 Sur 15 Sudeste 0 -- -- 60
2019-06-06 09:00:00 11.3 5 Sudeste 10 Sudeste 0 -- -- 61
2019-06-06 08:00:00 8.6 0 Calma 5 Sudoeste 0 -- -- 70
2019-06-06 07:00:00 8.2 2 Oeste 13 Noroeste 0 -- -- 62
2019-06-06 06:00:00 9.2 6 Noroeste 13 Noroeste 0 -- -- 56
2019-06-06 05:00:00 9.9 4 Oeste 14 Noroeste 0 -- -- 58
2019-06-06 04:00:00 10.1 11 Noroeste 18 Noroeste 0 -- -- 57
2019-06-06 03:00:00 11.2 11 Noroeste 23 Noroeste 0 -- -- 55
2019-06-06 02:00:00 11.9 13 Noroeste 27 Noroeste 0 -- -- 55
2019-06-06 01:00:00 12.4 10 Noroeste 24 Norte 0 -- -- 51
2019-06-06 00:00:00 13.1 12 Noroeste 26 Noroeste 0 -- -- 50
2019-06-05 23:00:00 13.3 15 Noroeste 26 Noroeste 0 -- -- 51
2019-06-05 22:00:00 14.2 10 Noroeste 15 Noroeste 0 -- -- 52
2019-06-05 21:00:00 16 9 Noroeste 22 Noroeste 0 -- -- 45
2019-06-05 20:00:00 17.8 12 Noroeste 22 Oeste 0 -- -- 38
2019-06-05 19:00:00 18.5 9 Noroeste 26 Norte 0 -- -- 35
2019-06-05 18:00:00 19.5 10 Noroeste 30 Noroeste 0 -- -- 35
2019-06-05 17:00:00 18.8 17 Norte 33 Norte 0 -- -- 35
2019-06-05 16:00:00 18.7 14 Noroeste 34 Noroeste 0 -- -- 38
2019-06-05 15:00:00 17.6 13 Norte 38 Noroeste 0 -- -- 44
2019-06-05 14:00:00 17.4 18 Norte 42 Norte 0 -- -- 44
2019-06-05 13:00:00 16.7 19 Norte 56 Noroeste 0 -- -- 44
2019-06-05 12:00:00 14.7 29 Norte 50 Norte 0 -- -- 47
2019-06-05 11:00:00 14 26 Norte 59 Noroeste 0 -- -- 51
2019-06-05 10:00:00 12.9 35 Norte 54 Norte 0 -- -- 55
2019-06-05 09:00:00 12.1 28 Norte 45 Noroeste 0 -- -- 59
2019-06-05 08:00:00 11.2 18 Norte 45 Norte 0 -- -- 61
2019-06-05 07:00:00 10.4 24 Norte 48 Norte 0 -- -- 63
2019-06-05 06:00:00 10.6 23 Norte 43 Norte 0 -- -- 64
2019-06-05 05:00:00 11.4 26 Norte 57 Norte 0 -- -- 59
2019-06-05 04:00:00 11.9 31 Norte 55 Noroeste 0 -- -- 62
2019-06-05 03:00:00 12.8 24 Norte 44 Norte 0 -- -- 60
2019-06-05 02:00:00 13.7 22 Norte 43 Noroeste 0 -- -- 57
2019-06-05 01:00:00 14.8 19 Noroeste 35 Noroeste 0 -- -- 60
2019-06-05 00:00:00 15.3 10 Noroeste 33 Noroeste 0 -- -- 62
2019-06-04 23:00:00 15.7 19 Noroeste 38 Noroeste 0 -- -- 61
2019-06-04 22:00:00 16.5 18 Noroeste 34 Noroeste 0 -- -- 61
2019-06-04 21:00:00 17.5 14 Norte 33 Noroeste 0 -- -- 63
2019-06-04 20:00:00 19.2 18 Noroeste 37 Noroeste 0 -- -- 59
2019-06-04 19:00:00 21.1 15 Noroeste 28 Oeste 0 -- -- 53
2019-06-04 18:00:00 22.8 6 Oeste 22 Noroeste 0 -- -- 45
2019-06-04 17:00:00 23.5 10 Noroeste 23 Norte 0 -- -- 45
2019-06-04 16:00:00 23.4 8 Noroeste 23 Noroeste 0 -- -- 46
2019-06-04 15:00:00 22.5 9 Sur 26 Sudoeste 0 -- -- 48
2019-06-04 14:00:00 23 9 Oeste 30 Sur 0 -- -- 50
2019-06-04 13:00:00 22.2 16 Sudeste 24 Sudeste 0 -- -- 53
2019-06-04 12:00:00 21.3 11 Sudeste 22 Sudeste 0 -- -- 62
2019-06-04 11:00:00 20.4 9 Sudeste 17 Sur 0 -- -- 61
2019-06-04 10:00:00 18.8 7 Sudeste 10 Este 0 -- -- 66
2019-06-04 09:00:00 17.2 4 Sudeste 10 Sudeste 0 -- -- 66
2019-06-04 08:00:00 14.8 0 Calma 5 Sudoeste 0 -- -- 69
2019-06-04 07:00:00 14.8 3 Oeste 14 Noroeste 0 -- -- 64
2019-06-04 06:00:00 16.1 12 Noroeste 22 Noroeste 0 -- -- 59
2019-06-04 05:00:00 16.6 8 Noroeste 13 Noroeste 0 -- -- 60
2019-06-04 04:00:00 17.8 3 Sur 24 Noroeste 0 -- -- 71
2019-06-04 03:00:00 18.6 12 Noroeste 33 Noroeste 0 -- -- 69
2019-06-04 02:00:00 19.4 14 Noroeste 29 Norte 0 -- -- 64
2019-06-04 01:00:00 20.7 15 Noroeste 31 Noroeste 0 -- -- 55
2019-06-04 00:00:00 21.3 15 Noroeste 31 Noroeste 0 -- -- 53
2019-06-03 23:00:00 22 11 Noroeste 23 Noroeste 0 -- -- 52
2019-06-03 22:00:00 22.3 12 Noroeste 19 Noroeste 0 -- -- 45
2019-06-03 21:00:00 23.9 9 Noroeste 16 Noroeste 0 -- -- 37
2019-06-03 20:00:00 27.4 9 Noroeste 21 Noroeste 0 -- -- 29
2019-06-03 19:00:00 28.9 10 Noroeste 24 Noroeste 0 -- -- 27
2019-06-03 18:00:00 29.8 8 Noroeste 24 Noroeste 0 -- -- 25
2019-06-03 17:00:00 30.4 6 Oeste 25 Sudoeste 0 -- -- 20
2019-06-03 16:00:00 29.9 8 Sudoeste 23 Sur 0 -- -- 22
2019-06-03 15:00:00 28.9 10 Sur 21 Sur 0 -- -- 25
2019-06-03 14:00:00 28.2 9 Sudeste 22 Este 0 -- -- 23
2019-06-03 13:00:00 27.1 12 Sudeste 21 Sudeste 0 -- -- 30
2019-06-03 12:00:00 25 8 Sudeste 15 Sudeste 0 -- -- 43
2019-06-03 11:00:00 23.3 5 Sudeste 8 Sudeste 0 -- -- 47
2019-06-03 10:00:00 22.4 4 Sur 8 Sudeste 0 -- -- 40
2019-06-03 09:00:00 22 0 Calma 16 Noroeste 0 -- -- 41
2019-06-03 08:00:00 21.1 5 Noroeste 17 Noroeste 0 -- -- 33
2019-06-03 07:00:00 20.6 13 Noroeste 23 Noroeste 0 -- -- 25
2019-06-03 06:00:00 21.4 14 Noroeste 23 Noroeste 0 -- -- 22
2019-06-03 05:00:00 21.7 18 Noroeste 25 Noroeste 0 -- -- 22
2019-06-03 04:00:00 22.3 13 Noroeste 21 Oeste 0 -- -- 22
2019-06-03 03:00:00 23.7 13 Noroeste 27 Noroeste 0 -- -- 23
2019-06-03 02:00:00 23.7 17 Noroeste 26 Noroeste 0 -- -- 26
2019-06-03 01:00:00 23.9 15 Noroeste 27 Noroeste 0 -- -- 27
2019-06-03 00:00:00 24.9 20 Noroeste 36 Noroeste 0 -- -- 29
2019-06-02 23:00:00 25.8 21 Norte 40 Norte 0 -- -- 29
2019-06-02 22:00:00 24.1 18 Noroeste 27 Noroeste 0 -- -- 33
2019-06-02 21:00:00 24.6 16 Noroeste 24 Noroeste 0 -- -- 38
2019-06-02 20:00:00 26.4 12 Noroeste 18 Noroeste 0 -- -- 41
2019-06-02 19:00:00 28 10 Noroeste 18 Noroeste 0 -- -- 40
2019-06-02 18:00:00 31.1 5 Norte 16 Norte 0 -- -- 31
2019-06-02 17:00:00 30.6 4 Noroeste 16 Noroeste 0 -- -- 31
2019-06-02 16:00:00 31 6 Sudeste 14 Sudeste 0 -- -- 32
2019-06-02 15:00:00 30.2 4 Sur 15 Sudeste 0 -- -- 28
2019-06-02 14:00:00 29.2 6 Sur 13 Sur 0 -- -- 33
2019-06-02 13:00:00 28.5 6 Sur 15 Sur 0 -- -- 36
2019-06-02 12:00:00 27 6 Sudeste 14 Sudeste 0 -- -- 39
2019-06-02 11:00:00 26.5 6 Sudeste 11 Sudeste 0 -- -- 35
2019-06-02 10:00:00 25 5 Sudeste 9 Sur 0 -- -- 41
2019-06-02 09:00:00 23.6 2 Nordeste 9 Noroeste 0 -- -- 50
2019-06-02 08:00:00 20.3 0 Calma 8 Oeste 0 -- -- 53
2019-06-02 07:00:00 20.8 0 Calma 16 Noroeste 0 -- -- 41
2019-06-02 06:00:00 21.1 10 Noroeste 16 Noroeste 0 -- -- 39
2019-06-02 05:00:00 22 12 Noroeste 19 Noroeste 0 -- -- 37
2019-06-02 04:00:00 22 8 Noroeste 15 Noroeste 0 -- -- 37
2019-06-02 03:00:00 22 8 Noroeste 26 Nordeste 0 -- -- 37
2019-06-02 02:00:00 24 10 Noroeste 30 Norte 0 -- -- 34
2019-06-02 01:00:00 24.1 16 Noroeste 28 Noroeste 0 -- -- 31
2019-06-02 00:00:00 23.5 19 Noroeste 25 Noroeste 0 -- -- 31
2019-06-01 23:00:00 21.7 13 Noroeste 17 Noroeste 0 -- -- 36
2019-06-01 22:00:00 22.6 10 Noroeste 19 Noroeste 0 -- -- 37
2019-06-01 21:00:00 25.1 8 Noroeste 14 Oeste 0 -- -- 35
2019-06-01 20:00:00 28.7 9 Oeste 13 Noroeste 0 -- -- 30
2019-06-01 19:00:00 31 3 Sudoeste 12 Oeste 0 -- -- 29
2019-06-01 18:00:00 31.4 6 Noroeste 15 Noroeste 0 -- -- 26
2019-06-01 17:00:00 31.3 10 Sur 22 Sur 0 -- -- 26
2019-06-01 16:00:00 30.4 7 Sudeste 15 Sudeste 0 -- -- 32
2019-06-01 15:00:00 29.5 5 Sur 13 Sur 0 -- -- 35
2019-06-01 14:00:00 28.2 6 Sur 15 Sudeste 0 -- -- 35
2019-06-01 13:00:00 26.8 6 Sudeste 17 Sudeste 0 -- -- 39
2019-06-01 12:00:00 25.7 6 Sudeste 13 Sudeste 0 -- -- 40
2019-06-01 11:00:00 24.3 8 Sudeste 13 Sudeste 0 -- -- 40
2019-06-01 10:00:00 23.2 3 Este 8 Sudeste 0 -- -- 37
2019-06-01 09:00:00 21.8 3 Sudeste 12 Sur 0 -- -- 45
2019-06-01 08:00:00 19 5 Noroeste 19 Noroeste 0 -- -- 52
2019-06-01 07:00:00 18.4 13 Noroeste 19 Noroeste 0 -- -- 40
2019-06-01 06:00:00 20.4 4 Noroeste 13 Noroeste 0 -- -- 41
2019-06-01 05:00:00 21.5 8 Noroeste 18 Noroeste 0 -- -- 38
2019-06-01 04:00:00 21.8 9 Noroeste 22 Noroeste 0 -- -- 38
2019-06-01 03:00:00 20.9 6 Oeste 14 Noroeste 0 -- -- 42
2019-06-01 02:00:00 22.6 7 Noroeste 18 Noroeste 0 -- -- 38
2019-06-01 01:00:00 22.7 9 Noroeste 16 Noroeste 0 -- -- 37
2019-06-01 00:00:00 23.2 10 Noroeste 19 Noroeste 0 -- -- 37
2019-05-31 23:00:00 22.6 13 Noroeste 20 Noroeste 0 -- -- 41
2019-05-31 22:00:00 23.3 10 Noroeste 17 Noroeste 0 -- -- 42
2019-05-31 21:00:00 24 10 Noroeste 18 Oeste 0 -- -- 42
2019-05-31 20:00:00 28.3 8 Noroeste 13 Noroeste 0 -- -- 44
2019-05-31 19:00:00 30.3 3 Sur 8 Sudoeste 0 -- -- 32
2019-05-31 18:00:00 30.2 4 Sudeste 13 Sur 0 -- -- 30
2019-05-31 17:00:00 29.8 4 Este 15 Sudeste 0 -- -- 30
2019-05-31 16:00:00 29.4 4 Sur 20 Sudeste 0 -- -- 29
2019-05-31 15:00:00 29 6 Sur 18 Sudeste 0 -- -- 32
2019-05-31 14:00:00 28.3 9 Sur 14 Sur 0 -- -- 33
2019-05-31 13:00:00 26.6 6 Sudeste 15 Sudeste 0 -- -- 37
2019-05-31 12:00:00 25.6 9 Sudeste 15 Sudeste 0 -- -- 40
2019-05-31 11:00:00 24 3 Sudeste 10 Sudeste 0 -- -- 38
2019-05-31 10:00:00 22.4 5 Sudeste 9 Sudeste 0 -- -- 41
2019-05-31 09:00:00 21.8 3 Este 12 Noroeste 0 -- -- 38
2019-05-31 08:00:00 18.5 0 Calma 4 Sudoeste 0 -- -- 44
2019-05-31 07:00:00 17.1 0 Calma 14 Noroeste 0 -- -- 41
2019-05-31 06:00:00 17.5 9 Noroeste 19 Noroeste 0 -- -- 41
2019-05-31 05:00:00 20.5 8 Noroeste 17 Noroeste 0 -- -- 32
2019-05-31 04:00:00 18.7 12 Noroeste 19 Oeste 0 -- -- 41
2019-05-31 03:00:00 21.2 6 Noroeste 16 Noroeste 0 -- -- 35
2019-05-31 02:00:00 21.6 9 Noroeste 19 Noroeste 0 -- -- 34
2019-05-31 01:00:00 21.4 13 Noroeste 18 Noroeste 0 -- -- 35
2019-05-31 00:00:00 21.7 8 Noroeste 17 Noroeste 0 -- -- 35
2019-05-30 23:00:00 22.3 10 Noroeste 15 Noroeste 0 -- -- 35
2019-05-30 22:00:00 22.4 10 Noroeste 17 Noroeste 0 -- -- 37
2019-05-30 21:00:00 22.8 12 Noroeste 19 Noroeste 0 -- -- 41
2019-05-30 20:00:00 26.5 9 Noroeste 13 Noroeste 0 -- -- 42
2019-05-30 19:00:00 28.1 4 Sudoeste 15 Sudeste 0 -- -- 35
2019-05-30 18:00:00 28.2 6 Sur 13 Sur 0 -- -- 34
2019-05-30 17:00:00 27.8 5 Sur 17 Sur 0 -- -- 34
2019-05-30 16:00:00 27 4 Sudeste 13 Sudeste 0 -- -- 36
2019-05-30 15:00:00 25.8 7 Sur 17 Sur 0 -- -- 37
2019-05-30 14:00:00 24.7 6 Sur 18 Sudeste 0 -- -- 40
2019-05-30 13:00:00 23.2 6 Sudeste 16 Sudeste 0 -- -- 42
2019-05-30 12:00:00 22.1 6 Sudeste 15 Sur 0 -- -- 41
2019-05-30 11:00:00 20.9 5 Sur 11 Sudeste 0 -- -- 41
2019-05-30 10:00:00 19 8 Sudeste 13 Sudeste 0 -- -- 48
2019-05-30 09:00:00 17.5 4 Este 6 Sudeste 0 -- -- 53
2019-05-30 08:00:00 14 2 Este 9 Noroeste 0 -- -- 63
2019-05-30 07:00:00 13.4 5 Noroeste 11 Noroeste 0 -- -- 57
2019-05-30 06:00:00 14.4 4 Oeste 11 Noroeste 0 -- -- 51
2019-05-30 05:00:00 15.8 2 Sudeste 13 Noroeste 0 -- -- 45
2019-05-30 04:00:00 15 10 Noroeste 15 Noroeste 0 -- -- 43
2019-05-30 03:00:00 16.4 3 Sudeste 16 Sudoeste 0 -- -- 43
2019-05-30 02:00:00 18.8 11 Noroeste 21 Oeste 0 -- -- 37
2019-05-30 01:00:00 19.3 11 Noroeste 17 Noroeste 0 -- -- 36
2019-05-30 00:00:00 19 7 Noroeste 16 Noroeste 0 -- -- 37
2019-05-29 23:00:00 18.7 12 Noroeste 17 Noroeste 0 -- -- 39
2019-05-29 22:00:00 19.8 12 Noroeste 21 Noroeste 0 -- -- 39
2019-05-29 21:00:00 20.3 5 Noroeste 15 Noroeste 0 -- -- 52
2019-05-29 20:00:00 25 5 Noroeste 10 Sur 0 -- -- 48
2019-05-29 19:00:00 25.8 5 Sur 10 Sudeste 0 -- -- 41
2019-05-29 18:00:00 25.3 2 Sur 13 Sudeste 0 -- -- 40
2019-05-29 17:00:00 25 5 Sudeste 17 Sudeste 0 -- -- 41
2019-05-29 16:00:00 24 7 Sur 16 Sudeste 0 -- -- 41
2019-05-29 15:00:00 23.1 8 Sur 16 Sudeste 0 -- -- 42
2019-05-29 14:00:00 21.6 7 Sudeste 18 Sur 0 -- -- 43
2019-05-29 13:00:00 20.3 7 Sudeste 15 Sur 0 -- -- 46
2019-05-29 12:00:00 19.2 8 Sur 18 Sudeste 0 -- -- 48
2019-05-29 11:00:00 17.5 8 Sudeste 14 Sudeste 0 -- -- 50
2019-05-29 10:00:00 15.9 6 Sudeste 13 Sudeste 0 -- -- 53
2019-05-29 09:00:00 14.6 8 Sur 14 Sur 0 -- -- 53
2019-05-29 08:00:00 12.2 3 Sur 8 Sudoeste 0 -- -- 62
2019-05-29 07:00:00 11.9 5 Sudoeste 8 Sudeste 0 -- -- 58
2019-05-29 06:00:00 12.6 0 Calma 12 Noroeste 0 -- -- 56
2019-05-29 05:00:00 13.8 10 Noroeste 17 Noroeste 0 -- -- 52
2019-05-29 04:00:00 13.4 5 Noroeste 12 Noroeste 0 -- -- 54
2019-05-29 03:00:00 15.1 5 Sudoeste 12 Sudoeste 0 -- -- 49
2019-05-29 02:00:00 15.9 3 Oeste 9 Sur 0 -- -- 47
2019-05-29 01:00:00 17.4 0 Calma 12 Noroeste 0 -- -- 42
2019-05-29 00:00:00 19.7 6 Sudoeste 23 Noroeste 0 -- -- 39
2019-05-28 23:00:00 21.6 15 Norte 32 Norte 0 -- -- 32
2019-05-28 22:00:00 21.8 18 Norte 45 Norte 0 -- -- 30
2019-05-28 21:00:00 22.3 25 Norte 46 Norte 0 -- -- 29
2019-05-28 20:00:00 23.5 20 Norte 43 Norte 0 -- -- 28
2019-05-28 19:00:00 24.6 21 Norte 34 Norte 0 -- -- 28
2019-05-28 18:00:00 26 17 Norte 32 Norte 0 -- -- 25
2019-05-28 17:00:00 27 10 Norte 21 Norte 0 -- -- 27
2019-05-28 16:00:00 27.1 4 Sur 15 Sudeste 0 -- -- 36
2019-05-28 15:00:00 26.1 8 Sudeste 20 Sudeste 0 -- -- 39
2019-05-28 14:00:00 25.5 10 Sur 24 Sudeste 0 -- -- 43
2019-05-28 13:00:00 24.2 10 Sudeste 20 Sur 0 -- -- 45
2019-05-28 12:00:00 23.2 9 Sudeste 14 Sudeste 0 -- -- 44
2019-05-28 11:00:00 22 5 Sudeste 14 Sudeste 0 -- -- 45
2019-05-28 10:00:00 20.8 5 Este 9 Sudeste 0 -- -- 47
2019-05-28 09:00:00 19.7 3 Sudeste 5 Sudeste 0 -- -- 52
2019-05-28 08:00:00 15.9 5 Noroeste 8 Noroeste 0 -- -- 64
2019-05-28 07:00:00 14.5 2 Sur 12 Noroeste 0 -- -- 65
2019-05-28 06:00:00 15.7 2 Noroeste 11 Sudoeste 0 -- -- 61
2019-05-28 05:00:00 17.2 3 Sur 13 Sur 0 -- -- 55
2019-05-28 04:00:00 18.2 4 Sudoeste 11 Noroeste 0 -- -- 49
2019-05-28 03:00:00 18.6 7 Noroeste 14 Noroeste 0 -- -- 48
2019-05-28 02:00:00 19.9 8 Noroeste 39 Norte 0 -- -- 44
2019-05-28 01:00:00 22 24 Norte 38 Norte 0 -- -- 39
2019-05-28 00:00:00 21.9 16 Norte 31 Noroeste 0 -- -- 37
2019-05-27 23:00:00 21.1 22 Noroeste 35 Noroeste 0 -- -- 42
2019-05-27 22:00:00 20.9 19 Norte 31 Noroeste 0 -- -- 46
2019-05-27 21:00:00 22.8 17 Norte 32 Norte 0 -- -- 41
2019-05-27 20:00:00 24.9 15 Norte 30 Noroeste 0 -- -- 37
2019-05-27 19:00:00 26.3 17 Noroeste 28 Noroeste 0 -- -- 34
2019-05-27 18:00:00 27 12 Nordeste 37 Norte 0 -- -- 36
2019-05-27 17:00:00 26.7 20 Norte 36 Norte 0 -- -- 36
2019-05-27 16:00:00 27.1 20 Noroeste 44 Noroeste 0 -- -- 36
2019-05-27 15:00:00 27 15 Norte 30 Noroeste 0 -- -- 36
2019-05-27 14:00:00 26.9 13 Noroeste 30 Norte 0 -- -- 38
2019-05-27 13:00:00 25.4 7 Sudeste 13 Sur 0 -- -- 44
2019-05-27 12:00:00 23.9 8 Sudeste 14 Sudeste 0 -- -- 46
2019-05-27 11:00:00 22.9 6 Sudeste 13 Sudeste 0 -- -- 45
2019-05-27 10:00:00 22.2 6 Sudeste 11 Sudeste 0 -- -- 45
2019-05-27 09:00:00 21.3 2 Este 6 Noroeste 0 -- -- 49
2019-05-27 08:00:00 17.3 0 Calma 15 Noroeste 0 -- -- 63
2019-05-27 07:00:00 17.1 5 Oeste 15 Noroeste 0 -- -- 51
2019-05-27 06:00:00 18.1 8 Noroeste 17 Noroeste 0 -- -- 47
2019-05-27 05:00:00 18.2 8 Noroeste 15 Oeste 0 -- -- 48
2019-05-27 04:00:00 18.2 11 Noroeste 18 Oeste 0 -- -- 48
2019-05-27 03:00:00 20 15 Noroeste 25 Noroeste 0 -- -- 44
2019-05-27 02:00:00 20 14 Noroeste 22 Noroeste 0 -- -- 43
2019-05-27 01:00:00 19.7 9 Noroeste 20 Noroeste 0 -- -- 42
2019-05-27 00:00:00 20.3 12 Noroeste 28 Noroeste 0 -- -- 39
2019-05-26 23:00:00 20.5 15 Noroeste 29 Noroeste 0 -- -- 39
2019-05-26 22:00:00 21.4 2 Sudeste 12 Oeste 0 -- -- 39
2019-05-26 21:00:00 22.3 5 Noroeste 23 Nordeste 0 -- -- 38
2019-05-26 20:00:00 24.9 12 Norte 37 Norte 0 -- -- 31
2019-05-26 19:00:00 25.5 18 Norte 42 Nordeste 0 -- -- 31
2019-05-26 18:00:00 26 12 Nordeste 39 Nordeste 0 -- -- 32
2019-05-26 17:00:00 25.9 19 Nordeste 40 Norte 0 -- -- 31
2019-05-26 16:00:00 26.3 9 Sur 21 Sudeste 0 -- -- 38
2019-05-26 15:00:00 25.1 9 Sudeste 22 Sur 0 -- -- 43
2019-05-26 14:00:00 23.5 9 Sudeste 18 Sudeste 0 -- -- 47
2019-05-26 13:00:00 21.9 8 Sudeste 18 Sur 0 -- -- 47
2019-05-26 12:00:00 20.4 8 Sudeste 15 Sudeste 0 -- -- 48
2019-05-26 11:00:00 18.9 6 Este 14 Sudeste 0 -- -- 53
2019-05-26 10:00:00 17.2 7 Sudeste 12 Sudeste 0 -- -- 53
2019-05-26 09:00:00 15.9 4 Sudeste 8 Sudeste 0 -- -- 52
2019-05-26 08:00:00 12.8 0 Calma 8 Oeste 0 -- -- 58
2019-05-26 07:00:00 13.2 0 Calma 9 Noroeste 0 -- -- 54
2019-05-26 06:00:00 14.1 3 Norte 9 Sudoeste 0 -- -- 53
2019-05-26 05:00:00 14.8 3 Oeste 12 Noroeste 0 -- -- 52
2019-05-26 04:00:00 15 9 Noroeste 18 Noroeste 0 -- -- 49
2019-05-26 03:00:00 18 7 Sudeste 25 Norte 0 -- -- 40
2019-05-26 02:00:00 18.8 5 Noroeste 21 Noroeste 0 -- -- 39
2019-05-26 01:00:00 17.6 13 Noroeste 26 Noroeste 0 -- -- 41
2019-05-26 00:00:00 17.3 10 Noroeste 29 Sudeste 0 -- -- 40
2019-05-25 23:00:00 19 14 Sur 29 Norte 0 -- -- 33
2019-05-25 22:00:00 19.6 19 Norte 34 Norte 0 -- -- 37
2019-05-25 21:00:00 20.4 16 Nordeste 33 Norte 0 -- -- 35
2019-05-25 20:00:00 22.1 17 Norte 31 Norte 0 -- -- 33
2019-05-25 19:00:00 24.1 3 Sur 14 Sudeste 0 -- -- 40
2019-05-25 18:00:00 23.8 7 Sudeste 18 Sur 0 -- -- 40
2019-05-25 17:00:00 23.7 9 Sudeste 19 Sudeste 0 -- -- 41
2019-05-25 16:00:00 23.3 10 Sur 21 Sudeste 0 -- -- 43
2019-05-25 15:00:00 22.4 10 Sur 20 Sudeste 0 -- -- 44
2019-05-25 14:00:00 21 6 Sudeste 18 Sudeste 0 -- -- 45
2019-05-25 13:00:00 19.9 8 Sudeste 20 Sudeste 0 -- -- 48
2019-05-25 12:00:00 18.6 7 Sudeste 16 Sur 0 -- -- 49
2019-05-25 11:00:00 17.5 7 Sudeste 14 Sudeste 0 -- -- 52
2019-05-25 10:00:00 16 6 Sur 14 Sudeste 0 -- -- 55
2019-05-25 09:00:00 14.9 4 Sudeste 9 Sur 0 -- -- 55
2019-05-25 08:00:00 11.6 5 Sur 15 Noroeste 0 -- -- 64
2019-05-25 07:00:00 10.3 9 Noroeste 17 Noroeste 0 -- -- 65
2019-05-25 06:00:00 10.3 3 Noroeste 9 Noroeste 0 -- -- 66
2019-05-25 05:00:00 11.4 3 Sudoeste 12 Noroeste 0 -- -- 61
2019-05-25 04:00:00 11.5 5 Noroeste 12 Noroeste 0 -- -- 60
2019-05-25 03:00:00 13 3 Oeste 10 Sudoeste 0 -- -- 54
2019-05-25 02:00:00 13.7 3 Sudoeste 10 Sur 0 -- -- 50
2019-05-25 01:00:00 15.1 2 Norte 14 Noroeste 0 -- -- 43
2019-05-25 00:00:00 17.2 3 Norte 37 Noroeste 0 -- -- 37
2019-05-24 23:00:00 19.1 22 Norte 51 Norte 0 -- -- 35
2019-05-24 22:00:00 19.5 25 Norte 54 Nordeste 0 -- -- 33
2019-05-24 21:00:00 19.9 18 Nordeste 44 Norte 0 -- -- 35
2019-05-24 20:00:00 21.5 22 Norte 48 Norte 0 -- -- 33
2019-05-24 19:00:00 22.6 20 Norte 42 Norte 0 -- -- 31
2019-05-24 18:00:00 23.4 21 Nordeste 36 Nordeste 0 -- -- 27
2019-05-24 17:00:00 24.5 14 Nordeste 32 Nordeste 0 -- -- 31
2019-05-24 16:00:00 24.5 8 Sudeste 18 Sur 0 -- -- 39
2019-05-24 15:00:00 24.4 3 Nordeste 22 Sur 0 -- -- 39
2019-05-24 14:00:00 23.7 5 Sudoeste 18 Sudeste 0 -- -- 37
2019-05-24 13:00:00 23 10 Sudeste 19 Sur 0 -- -- 42
2019-05-24 12:00:00 21.9 7 Sur 19 Sur 0 -- -- 49
2019-05-24 11:00:00 20.5 5 Sur 17 Sudeste 0 -- -- 52
2019-05-24 10:00:00 19.3 6 Sur 13 Sur 0 -- -- 59
2019-05-24 09:00:00 17.1 5 Sudeste 9 Sudoeste 0 -- -- 60
2019-05-24 08:00:00 14.6 4 Sudoeste 14 Noroeste 0 -- -- 64
2019-05-24 07:00:00 14.6 4 Noroeste 12 Noroeste 0 -- -- 61
2019-05-24 06:00:00 16.3 3 Sudoeste 21 Noroeste 0 -- -- 54
2019-05-24 05:00:00 17.4 9 Noroeste 24 Noroeste 0 -- -- 50
2019-05-24 04:00:00 17.9 12 Noroeste 27 Noroeste 0 -- -- 50
2019-05-24 03:00:00 18.5 15 Noroeste 27 Noroeste 0 -- -- 50
2019-05-24 02:00:00 18.9 13 Noroeste 25 Noroeste 0 -- -- 49
2019-05-24 01:00:00 19 14 Noroeste 23 Noroeste 0 -- -- 50
2019-05-24 00:00:00 19.7 13 Noroeste 36 Noroeste 0 -- -- 47
2019-05-23 23:00:00 20.1 20 Norte 38 Norte 0 -- -- 46
2019-05-23 22:00:00 20.5 20 Noroeste 29 Norte 0 -- -- 41
2019-05-23 21:00:00 21.6 9 Noroeste 15 Noroeste 0 -- -- 48
2019-05-23 20:00:00 23.6 3 Noroeste 13 Noroeste 0 -- -- 43
2019-05-23 19:00:00 25 6 Noroeste 16 Noroeste 0 -- -- 39
2019-05-23 18:00:00 25.8 5 Oeste 20 Oeste 0 -- -- 36
2019-05-23 17:00:00 26.1 6 Noroeste 27 Norte 0 -- -- 31
2019-05-23 16:00:00 26.4 5 Oeste 24 Noroeste 0 -- -- 33
2019-05-23 15:00:00 25.2 8 Sudoeste 27 Sudoeste 0 -- -- 36
2019-05-23 14:00:00 25.1 10 Sur 28 Sur -- -- -- 40
2019-05-23 13:00:00 24.3 13 Sudeste 30 Sudeste -- -- -- 43
2019-05-23 12:00:00 23.5 10 Sudeste 20 Sudeste 0 -- -- 40
2019-05-23 11:00:00 22.2 11 Sur 17 Sur 0 -- -- 52
2019-05-23 10:00:00 20.3 2 Noroeste 7 Oeste 0 -- -- 63
2019-05-23 09:00:00 19.1 8 Noroeste 13 Noroeste 0 -- -- 55
2019-05-23 08:00:00 18.4 8 Noroeste 18 Noroeste 0 -- -- 56
2019-05-23 07:00:00 16.1 9 Noroeste 15 Noroeste 0 -- -- 61
2019-05-23 06:00:00 17.2 9 Noroeste 19 Noroeste 0 -- -- 51
2019-05-23 05:00:00 17.6 4 Noroeste 19 Noroeste 0 -- -- 48
2019-05-23 04:00:00 19.5 10 Noroeste 22 Noroeste 0 -- -- 42
2019-05-23 03:00:00 19.7 12 Noroeste 24 Noroeste 0 -- -- 42
2019-05-23 02:00:00 19.2 14 Noroeste 28 Noroeste 0 -- -- 44
2019-05-23 01:00:00 18.6 14 Noroeste 22 Noroeste 0 -- -- 46
2019-05-23 00:00:00 18.9 14 Noroeste 22 Noroeste 0 -- -- 45
2019-05-22 23:00:00 19.3 16 Noroeste 24 Noroeste 0 -- -- 45
2019-05-22 22:00:00 18.7 14 Noroeste 20 Noroeste 0 -- -- 49
2019-05-22 21:00:00 20.4 8 Noroeste 13 Noroeste 0 -- -- 46
2019-05-22 20:00:00 25.4 4 Noroeste 9 Noroeste 0 -- -- 36
2019-05-22 19:00:00 25.9 2 Nordeste 8 Nordeste 0 -- -- 31
2019-05-22 18:00:00 26.2 5 Sudeste 15 Sur 0 -- -- 29
2019-05-22 17:00:00 26 6 Sur 19 Sur 0 -- -- 31
2019-05-22 16:00:00 25.9 8 Sur 17 Sur 0 -- -- 36
2019-05-22 15:00:00 25.1 8 Sur 21 Sudeste 0 -- -- 36
2019-05-22 14:00:00 24.1 9 Sudeste 18 Sudeste 0 -- -- 40
2019-05-22 13:00:00 23.3 6 Sur 15 Sur 0 -- -- 38
2019-05-22 12:00:00 22.2 8 Sudeste 14 Sur 0 -- -- 46
2019-05-22 11:00:00 20.6 5 Sudeste 10 Sudeste 0 -- -- 52
2019-05-22 10:00:00 18.3 4 Este 13 Sudoeste 0 -- -- 53
2019-05-22 09:00:00 17.2 9 Sur 14 Sudeste 0 -- -- 55
2019-05-22 08:00:00 13.8 8 Noroeste 12 Noroeste 0 -- -- 68
2019-05-22 07:00:00 13.5 4 Sudoeste 14 Noroeste 0 -- -- 59
2019-05-22 06:00:00 14.3 10 Noroeste 19 Noroeste 0 -- -- 55
2019-05-22 05:00:00 14.7 7 Noroeste 15 Noroeste 0 -- -- 54
2019-05-22 04:00:00 15.8 2 Oeste 14 Noroeste 0 -- -- 47
2019-05-22 03:00:00 16.9 9 Noroeste 16 Noroeste 0 -- -- 43
2019-05-22 02:00:00 17.6 8 Noroeste 15 Noroeste 0 -- -- 40
2019-05-22 01:00:00 17 12 Noroeste 25 Noroeste 0 -- -- 51
2019-05-22 00:00:00 17.2 12 Noroeste 22 Noroeste 0 -- -- 51
2019-05-21 23:00:00 17 13 Noroeste 21 Noroeste 0 -- -- 51
2019-05-21 22:00:00 17.2 6 Noroeste 13 Noroeste 0 -- -- 51
2019-05-21 21:00:00 19.7 8 Noroeste 14 Oeste 0 -- -- 43
2019-05-21 20:00:00 23.4 9 Noroeste 15 Norte 0 -- -- 36
2019-05-21 19:00:00 23.9 4 Norte 19 Norte 0 -- -- 38
2019-05-21 18:00:00 22.3 2 Este 14 Sudeste 0 -- -- 40
2019-05-21 17:00:00 22.2 3 Este 18 Sur 0 -- -- 45
2019-05-21 16:00:00 22.6 8 Sudoeste 21 Sudeste 0 -- -- 45
2019-05-21 15:00:00 22.3 7 Sudeste 20 Sudeste 0 -- -- 42
2019-05-21 14:00:00 -- -- -- -- -- -- -- -- --
2019-05-21 13:00:00 20.5 7 Sur 22 Sudeste 0 -- -- 46
2019-05-21 12:00:00 19.5 12 Sur 19 Sudeste 0 -- -- 45
2019-05-21 11:00:00 17.9 8 Sur 15 Sur 0 -- -- 51
2019-05-21 10:00:00 16.7 6 Sudeste 11 Sudeste 0 -- -- 56
2019-05-21 09:00:00 15.4 3 Este 6 Este 0 -- -- 55
2019-05-21 08:00:00 12.1 2 Sur 6 Noroeste 0 -- -- 61
2019-05-21 07:00:00 12.4 0 Calma 14 Noroeste 0 -- -- 56
2019-05-21 06:00:00 12.5 3 Noroeste 12 Noroeste 0 -- -- 55
2019-05-21 05:00:00 12.7 5 Noroeste 16 Noroeste 0 -- -- 54
2019-05-21 04:00:00 12.9 9 Noroeste 19 Noroeste 0 -- -- 53
2019-05-21 03:00:00 13.9 9 Noroeste 16 Noroeste 0 -- -- 49
2019-05-21 02:00:00 14.8 7 Noroeste 18 Oeste 0 -- -- 47
2019-05-21 01:00:00 14.9 8 Noroeste 19 Noroeste 0 -- -- 47
2019-05-21 00:00:00 15.6 10 Noroeste 21 Noroeste 0 -- -- 46